Time;durP1;ratioP1;P1;durP2;ratioP2;P2;SDS_P1;SDS_P2;PMS_P1;PMS_P2;Temp;Humidity;BMP_temperature;BMP_pressure;BME280_temperature;BME280_humidity;BME280_pressure;Samples;Min_cycle;Max_cycle;Signal;HPM_P1;HPM_P2
2022/07/26 00:01:23;;;;;;;5.28;3.47;;;;;;;20.77;48.48;97798.69;5089049;28;20111;-72
2022/07/26 00:03:49;;;;;;;5.85;3.92;;;;;;;20.74;48.58;97793.84;5090077;28;20065;-72
2022/07/26 00:06:15;;;;;;;5.38;4.00;;;;;;;20.70;48.37;97793.78;5090106;28;20108;-72
2022/07/26 00:08:41;;;;;;;6.72;3.83;;;;;;;20.67;48.43;97792.59;5089534;28;20032;-73
2022/07/26 00:11:06;;;;;;;6.63;3.83;;;;;;;20.65;48.79;97800.53;5089550;28;20038;-73
2022/07/26 00:13:32;;;;;;;6.07;3.50;;;;;;;20.64;48.75;97795.31;5089784;28;20035;-72
2022/07/26 00:15:58;;;;;;;5.07;3.88;;;;;;;20.60;49.03;97797.25;5088924;28;20035;-72
2022/07/26 00:18:24;;;;;;;5.50;3.80;;;;;;;20.59;49.09;97790.88;5088338;28;20090;-72
2022/07/26 00:20:49;;;;;;;6.63;3.60;;;;;;;20.55;49.10;97789.25;5088122;28;20051;-72
2022/07/26 00:23:15;;;;;;;6.40;4.10;;;;;;;20.53;49.75;97793.22;5088313;28;20461;-72
2022/07/26 00:25:40;;;;;;;7.10;3.92;;;;;;;20.51;49.40;97792.78;5088052;28;20026;-73
2022/07/26 00:28:06;;;;;;;5.47;3.88;;;;;;;20.51;49.37;97780.84;5087937;28;20024;-71
2022/07/26 00:30:32;;;;;;;6.00;3.92;;;;;;;20.50;49.82;97777.28;5088685;28;20028;-72
2022/07/26 00:32:57;;;;;;;6.57;4.22;;;;;;;20.49;49.58;97775.66;5087479;28;20031;-72
2022/07/26 00:35:23;;;;;;;7.45;4.45;;;;;;;20.48;49.67;97782.41;5088310;28;20443;-72
2022/07/26 00:37:48;;;;;;;6.03;4.50;;;;;;;20.45;49.65;97772.03;5088119;28;20027;-73
2022/07/26 00:40:15;;;;;;;5.38;4.57;;;;;;;20.43;50.01;97760.47;5088141;28;20480;-73
2022/07/26 00:42:41;;;;;;;7.10;4.30;;;;;;;20.37;50.18;97760.00;5087696;28;20016;-73
2022/07/26 00:45:07;;;;;;;6.47;4.18;;;;;;;20.32;50.23;97760.34;5087763;28;20111;-72
2022/07/26 00:47:33;;;;;;;7.35;4.55;;;;;;;20.29;50.20;97749.97;5088171;28;20634;-71
2022/07/26 00:49:59;;;;;;;5.82;4.20;;;;;;;20.29;50.36;97751.94;5088561;28;20154;-71
2022/07/26 00:52:25;;;;;;;7.13;4.38;;;;;;;20.28;50.49;97739.19;5087855;28;20034;-72
2022/07/26 00:54:53;;;;;;;6.72;4.53;;;;;;;20.24;50.70;97747.50;5069250;28;20454;-71
2022/07/26 00:57:21;;;;;;;5.45;4.20;;;;;;;20.22;50.63;97750.66;5087974;28;20031;-72
2022/07/26 00:59:47;;;;;;;6.80;4.65;;;;;;;20.20;50.78;97735.53;5087912;28;20028;-71
2022/07/26 01:02:13;;;;;;;6.22;4.30;;;;;;;20.17;50.72;97741.84;5086952;28;20039;-71
2022/07/26 01:04:40;;;;;;;6.68;4.50;;;;;;;20.17;50.84;97736.28;5086354;28;20031;-72
2022/07/26 01:07:06;;;;;;;6.53;4.65;;;;;;;20.16;51.32;97729.09;5088124;28;20036;-72
2022/07/26 01:09:31;;;;;;;6.10;4.25;;;;;;;20.14;50.79;97731.47;5088147;28;20028;-71
2022/07/26 01:11:58;;;;;;;6.82;4.57;;;;;;;20.12;51.14;97734.63;5087694;28;20489;-72
2022/07/26 01:14:24;;;;;;;5.90;4.20;;;;;;;20.12;51.27;97731.03;5088151;28;20028;-72
2022/07/26 01:16:50;;;;;;;5.15;4.50;;;;;;;20.12;51.09;97719.91;5088201;28;20024;-72
2022/07/26 01:19:15;;;;;;;5.75;4.47;;;;;;;20.11;51.42;97726.66;5087809;28;20085;-71
2022/07/26 01:21:41;;;;;;;5.40;4.22;;;;;;;20.06;51.33;97722.22;5087695;28;20052;-72
2022/07/26 01:24:07;;;;;;;8.10;4.47;;;;;;;20.02;51.09;97727.72;5087906;28;20020;-72
2022/07/26 01:26:32;;;;;;;7.20;4.55;;;;;;;20.04;51.36;97724.59;5088277;28;20033;-72
2022/07/26 01:28:58;;;;;;;6.97;4.68;;;;;;;20.02;51.54;97716.59;5088505;28;20053;-72
2022/07/26 01:31:24;;;;;;;7.15;4.43;;;;;;;20.01;51.48;97723.34;5087294;28;20476;-72
2022/07/26 01:33:49;;;;;;;6.00;4.72;;;;;;;20.02;51.56;97729.72;5087601;28;20081;-71
2022/07/26 01:36:15;;;;;;;7.88;4.88;;;;;;;20.02;51.87;97726.94;5087605;28;20032;-72
2022/07/26 01:38:41;;;;;;;6.93;4.85;;;;;;;20.01;51.68;97723.34;5088784;28;20055;-72
2022/07/26 01:41:07;;;;;;;7.65;5.30;;;;;;;20.00;51.86;97721.72;5088574;28;20046;-72
2022/07/26 01:43:33;;;;;;;5.38;4.65;;;;;;;20.00;51.79;97720.94;5092096;28;20392;-72
2022/07/26 01:45:59;;;;;;;8.18;4.70;;;;;;;19.98;52.14;97714.94;5093050;28;20051;-72
2022/07/26 01:48:24;;;;;;;5.75;4.40;;;;;;;19.94;52.16;97712.13;5073060;28;20456;-72
2022/07/26 01:50:50;;;;;;;6.93;4.75;;;;;;;19.95;52.16;97707.34;5090114;28;20432;-72
2022/07/26 01:53:15;;;;;;;8.77;4.75;;;;;;;19.96;52.17;97708.97;5091310;28;20146;-72
2022/07/26 01:55:42;;;;;;;5.85;4.53;;;;;;;19.95;52.22;97707.34;5092173;28;20509;-72
2022/07/26 01:58:07;;;;;;;6.28;5.03;;;;;;;19.94;52.33;97709.34;5093439;28;20032;-72
2022/07/26 02:00:33;;;;;;;8.35;4.70;;;;;;;19.91;52.29;97708.13;5095089;28;20028;-72
2022/07/26 02:02:59;;;;;;;7.00;4.82;;;;;;;19.90;52.28;97703.72;5096456;28;20016;-72
2022/07/26 02:05:24;;;;;;;7.43;4.70;;;;;;;19.91;52.61;97708.13;5095350;28;20024;-72
2022/07/26 02:07:50;;;;;;;6.45;4.93;;;;;;;19.87;52.37;97707.22;5093276;28;20093;-72
2022/07/26 02:10:15;;;;;;;8.23;4.80;;;;;;;19.86;52.42;97699.28;5092713;28;20422;-72
2022/07/26 02:12:41;;;;;;;6.00;4.82;;;;;;;19.87;52.44;97698.88;5089800;28;20457;-72
2022/07/26 02:15:09;;;;;;;6.90;4.43;;;;;;;19.87;52.86;97700.88;5092466;28;20035;-71
2022/07/26 02:17:35;;;;;;;6.60;4.82;;;;;;;19.87;52.74;97698.88;5092291;28;20042;-72
2022/07/26 02:20:01;;;;;;;6.47;4.65;;;;;;;19.88;52.69;97697.72;5092009;28;20431;-72
2022/07/26 02:22:26;;;;;;;4.78;4.22;;;;;;;19.88;52.87;97692.16;5091988;28;20094;-72
2022/07/26 02:24:52;;;;;;;6.15;5.07;;;;;;;19.89;52.87;97681.84;5091724;28;20036;-71
2022/07/26 02:27:18;;;;;;;8.00;5.82;;;;;;;19.88;53.34;97674.66;5091131;28;20035;-70
2022/07/26 02:29:43;;;;;;;9.60;5.60;;;;;;;19.87;53.24;97678.63;5091724;28;20032;-71
2022/07/26 02:32:09;;;;;;;8.68;5.70;;;;;;;19.87;53.41;97673.06;5090509;28;20472;-71
2022/07/26 02:34:36;;;;;;;7.68;4.97;;;;;;;19.85;53.64;97667.84;5090974;28;20118;-70
2022/07/26 02:37:03;;;;;;;6.93;4.72;;;;;;;19.86;53.52;97675.03;5088891;28;20115;-74
2022/07/26 02:39:28;;;;;;;8.48;5.38;;;;;;;19.86;53.52;97677.00;5069738;28;20503;-74
2022/07/26 02:41:58;;;;;;;5.82;4.85;;;;;;;19.87;53.45;97678.63;5089775;28;20036;-74
2022/07/26 02:44:25;;;;;;;6.82;4.97;;;;;;;19.89;53.63;97671.50;5069959;28;20024;-73
2022/07/26 02:46:51;;;;;;;7.47;5.32;;;;;;;19.90;53.60;97661.97;5090781;28;20447;-74
2022/07/26 02:49:17;;;;;;;7.97;5.75;;;;;;;19.91;53.47;97665.59;5091948;28;20028;-73
2022/07/26 02:51:43;;;;;;;7.32;5.28;;;;;;;19.91;54.10;97669.16;5090765;28;20028;-74
2022/07/26 02:54:08;;;;;;;5.88;5.15;;;;;;;19.91;53.86;97669.16;5091469;28;20028;-73
2022/07/26 02:56:34;;;;;;;8.02;5.63;;;;;;;19.91;53.98;97665.59;5091235;28;20107;-74
2022/07/26 02:58:59;;;;;;;7.18;5.50;;;;;;;19.89;53.80;97665.16;5091750;28;20024;-74
2022/07/26 03:01:25;;;;;;;7.35;5.53;;;;;;;19.89;53.71;97665.94;5091323;28;20388;-74
2022/07/26 03:03:52;;;;;;;6.65;5.40;;;;;;;19.90;54.22;97673.13;5091258;28;20741;-74
2022/07/26 03:06:18;;;;;;;6.22;5.63;;;;;;;19.89;53.90;97660.38;5073225;28;20148;-74
2022/07/26 03:08:44;;;;;;;7.55;5.97;;;;;;;19.88;54.18;97664.34;5091453;28;20054;-74
2022/07/26 03:11:10;;;;;;;6.28;5.38;;;;;;;19.88;54.13;97663.53;5091224;28;20105;-74
2022/07/26 03:13:35;;;;;;;8.55;5.65;;;;;;;19.88;54.19;97664.34;5073413;28;20046;-74
2022/07/26 03:16:00;;;;;;;6.68;5.28;;;;;;;19.89;54.23;97668.72;5089596;28;20586;-74
2022/07/26 03:18:26;;;;;;;7.70;5.43;;;;;;;19.90;54.33;97664.78;5089338;28;20469;-74
2022/07/26 03:20:51;;;;;;;6.22;5.15;;;;;;;19.91;54.49;97666.38;5090718;28;20540;-74
2022/07/26 03:23:17;;;;;;;7.20;5.68;;;;;;;19.94;54.39;97656.47;5090594;28;20173;-74
2022/07/26 03:25:42;;;;;;;7.40;5.75;;;;;;;19.97;54.40;97663.25;5091695;28;20050;-74
2022/07/26 03:28:08;;;;;;;8.95;5.43;;;;;;;19.99;54.23;97663.69;5091942;28;20077;-74
2022/07/26 03:30:33;;;;;;;8.27;5.75;;;;;;;20.02;53.97;97658.16;5092013;28;20028;-74
2022/07/26 03:32:59;;;;;;;7.85;5.93;;;;;;;20.07;54.12;97654.25;5091823;28;20094;-74
2022/07/26 03:35:25;;;;;;;7.78;6.00;;;;;;;20.12;54.17;97653.91;5073349;28;20107;-74
2022/07/26 03:37:50;;;;;;;7.00;5.88;;;;;;;20.15;54.21;97641.19;5091718;28;20028;-75
2022/07/26 03:40:16;;;;;;;9.95;6.18;;;;;;;20.16;54.19;97635.28;5091629;28;20491;-74
2022/07/26 03:42:43;;;;;;;8.40;6.07;;;;;;;20.19;54.02;97637.25;5073153;28;20031;-74
2022/07/26 03:45:09;;;;;;;7.97;6.07;;;;;;;20.23;54.40;97640.09;5091192;28;20507;-75
2022/07/26 03:47:36;;;;;;;7.72;5.80;;;;;;;20.23;53.94;97640.88;5091669;28;20016;-73
2022/07/26 03:50:02;;;;;;;8.88;6.32;;;;;;;20.26;54.00;97633.78;5091822;28;20032;-74
2022/07/26 03:52:27;;;;;;;9.10;6.35;;;;;;;20.29;53.95;97632.19;5088897;28;20035;-74
2022/07/26 03:54:52;;;;;;;7.35;6.10;;;;;;;20.28;54.43;97636.97;5091229;28;20432;-73
2022/07/26 03:57:18;;;;;;;8.20;5.65;;;;;;;20.28;54.06;97634.19;5091655;28;20103;-74
2022/07/26 03:59:43;;;;;;;8.00;5.72;;;;;;;20.32;53.81;97632.25;5091307;28;20020;-74
2022/07/26 04:02:09;;;;;;;9.20;5.97;;;;;;;20.37;53.81;97631.09;5090103;28;20380;-74
2022/07/26 04:04:34;;;;;;;10.45;5.63;;;;;;;20.44;53.92;97633.97;5091094;28;20031;-73
2022/07/26 04:06:59;;;;;;;7.93;5.70;;;;;;;20.49;53.80;97639.19;5089005;28;20498;-73
2022/07/26 04:09:25;;;;;;;8.13;5.78;;;;;;;20.55;53.92;97644.41;5091177;28;20032;-74
2022/07/26 04:11:50;;;;;;;8.07;6.00;;;;;;;20.58;53.83;97638.06;5091043;28;20031;-73
2022/07/26 04:14:16;;;;;;;12.50;5.65;;;;;;;20.62;53.72;97633.31;5091364;28;20422;-74
2022/07/26 04:16:41;;;;;;;9.60;6.15;;;;;;;20.68;53.78;97634.56;5090767;28;20050;-74
2022/07/26 04:19:08;;;;;;;8.90;5.93;;;;;;;20.73;53.65;97637.00;5089758;28;20038;-73
2022/07/26 04:21:33;;;;;;;11.45;6.65;;;;;;;20.80;53.48;97637.09;5088285;28;20113;-74
2022/07/26 04:23:59;;;;;;;10.63;7.35;;;;;;;20.87;53.56;97649.50;5071464;28;20044;-75
2022/07/26 04:26:25;;;;;;;10.50;6.38;;;;;;;20.95;53.26;97651.94;5088751;28;20032;-74
2022/07/26 04:28:51;;;;;;;8.00;5.85;;;;;;;21.02;53.50;97644.84;5090257;28;20115;-74
2022/07/26 04:31:16;;;;;;;11.25;6.50;;;;;;;21.04;53.20;97654.41;5090543;28;20464;-75
2022/07/26 04:33:42;;;;;;;9.40;6.00;;;;;;;21.08;53.10;97662.81;5090855;28;20539;-74
2022/07/26 04:36:07;;;;;;;10.00;6.05;;;;;;;21.11;53.10;97675.97;5088663;28;20028;-75
2022/07/26 04:38:33;;;;;;;8.55;5.72;;;;;;;21.11;53.04;97696.28;5090698;28;20036;-73
2022/07/26 04:40:58;;;;;;;11.93;6.60;;;;;;;21.12;53.10;97728.56;5090555;28;20400;-73
2022/07/26 04:43:24;;;;;;;13.48;6.60;;;;;;;21.16;52.95;97775.19;5091014;28;20035;-74
2022/07/26 04:45:50;;;;;;;13.10;6.75;;;;;;;21.20;52.77;97770.44;5088068;28;20028;-73
2022/07/26 04:48:16;;;;;;;10.15;6.25;;;;;;;21.22;53.08;97743.75;5089438;28;20036;-71
2022/07/26 04:50:42;;;;;;;9.05;6.43;;;;;;;21.27;52.67;97745.41;5090255;28;20036;-74
2022/07/26 04:53:09;;;;;;;8.98;5.75;;;;;;;21.34;52.86;97781.75;5087959;28;20032;-74
2022/07/26 04:55:38;;;;;;;13.75;5.95;;;;;;;21.42;52.54;97793.75;5089275;28;20035;-73
2022/07/26 04:58:04;;;;;;;12.20;6.83;;;;;;;21.50;52.32;97795.41;5089569;28;20498;-73
2022/07/26 05:00:30;;;;;;;8.40;5.68;;;;;;;21.60;52.50;97771.56;5086945;28;20308;-74
2022/07/26 05:02:58;;;;;;;10.10;6.32;;;;;;;21.74;52.37;97751.38;5090026;28;20030;-74
2022/07/26 05:05:25;;;;;;;9.80;6.28;;;;;;;21.89;51.94;97749.47;5068528;28;20036;-73
2022/07/26 05:07:53;;;;;;;8.43;6.18;;;;;;;22.02;51.98;97752.72;5087254;28;20080;-73
2022/07/26 05:10:20;;;;;;;8.70;5.88;;;;;;;22.15;51.81;97776.34;5088333;28;20028;-74
2022/07/26 05:12:46;;;;;;;9.55;6.00;;;;;;;22.28;51.61;97765.63;5090087;28;20036;-74
2022/07/26 05:15:12;;;;;;;8.35;6.45;;;;;;;22.40;51.40;97784.06;5088478;28;20168;-74
2022/07/26 05:17:38;;;;;;;7.88;5.65;;;;;;;22.53;51.29;97781.72;5093542;28;20059;-74
2022/07/26 05:20:09;;;;;;;8.50;5.93;;;;;;;22.65;51.22;97780.56;5088663;28;20103;-74
2022/07/26 05:22:35;;;;;;;9.80;5.75;;;;;;;22.75;50.79;97782.59;5091426;28;20024;-74
2022/07/26 05:25:02;;;;;;;8.57;6.10;;;;;;;22.87;50.73;97789.81;5091768;28;20028;-75
2022/07/26 05:27:27;;;;;;;9.88;5.85;;;;;;;22.95;50.67;97781.47;5091931;28;20044;-74
2022/07/26 05:29:54;;;;;;;8.45;6.18;;;;;;;22.95;50.60;97784.25;5093179;28;20035;-74
2022/07/26 05:32:20;;;;;;;9.18;6.47;;;;;;;22.96;51.01;97791.44;5070241;28;20025;-74
2022/07/26 05:34:46;;;;;;;10.57;6.43;;;;;;;22.94;51.42;97802.22;5091836;28;20035;-75
2022/07/26 05:37:11;;;;;;;9.35;6.43;;;;;;;22.92;51.59;97804.63;5075577;28;20476;-75
2022/07/26 05:39:37;;;;;;;10.35;6.53;;;;;;;22.92;52.11;97816.59;5088787;28;20027;-75
2022/07/26 05:42:02;;;;;;;9.07;6.88;;;;;;;22.93;52.07;97825.78;5073010;28;20047;-74
2022/07/26 05:44:28;;;;;;;8.77;6.85;;;;;;;22.94;52.37;97832.97;5094312;28;20032;-74
2022/07/26 05:46:53;;;;;;;8.10;7.22;;;;;;;22.90;53.23;97835.75;5093387;28;20063;-75
2022/07/26 05:49:18;;;;;;;10.10;7.82;;;;;;;22.88;53.36;97841.75;5093149;28;20066;-75
2022/07/26 05:51:44;;;;;;;11.00;8.15;;;;;;;22.86;53.64;97835.75;5074580;28;20107;-76
2022/07/26 05:54:09;;;;;;;11.95;8.45;;;;;;;22.85;53.94;97844.50;5093770;28;20537;-74
2022/07/26 05:56:35;;;;;;;12.85;8.73;;;;;;;22.81;54.73;97855.69;5093241;28;20927;-74
2022/07/26 05:59:00;;;;;;;9.82;7.40;;;;;;;22.76;54.33;97878.44;5091913;28;20024;-74
2022/07/26 06:01:28;;;;;;;9.80;8.02;;;;;;;22.73;54.65;97891.22;5090981;28;20102;-75
2022/07/26 06:03:53;;;;;;;10.05;8.60;;;;;;;22.70;55.17;97896.75;5093563;28;20044;-75
2022/07/26 06:06:19;;;;;;;12.95;9.15;;;;;;;22.65;56.09;97899.94;5092477;28;20028;-75
2022/07/26 06:08:44;;;;;;;69.85;34.05;;;;;;;22.53;56.52;97907.47;5092667;28;20027;-74
2022/07/26 06:11:10;;;;;;;11.48;10.23;;;;;;;22.40;56.84;97920.94;5089208;28;20039;-75
2022/07/26 06:13:36;;;;;;;11.52;9.43;;;;;;;22.27;57.59;97923.22;5075659;28;20383;-75
2022/07/26 06:16:01;;;;;;;14.55;10.57;;;;;;;22.16;58.45;97922.38;5087915;28;20089;-74
2022/07/26 06:18:27;;;;;;;15.40;10.50;;;;;;;21.97;58.80;97935.38;5092779;28;20078;-73
2022/07/26 06:20:52;;;;;;;17.45;11.20;;;;;;;21.81;59.10;97946.78;5092759;28;20048;-74
2022/07/26 06:23:18;;;;;;;13.60;9.90;;;;;;;21.66;60.61;97948.66;5093297;28;20073;-74
2022/07/26 06:25:43;;;;;;;12.52;10.27;;;;;;;21.51;61.46;97944.06;5090703;28;20023;-74
2022/07/26 06:28:09;;;;;;;12.57;10.77;;;;;;;21.37;63.87;97951.09;5073287;28;20043;-74
2022/07/26 06:30:38;;;;;;;13.10;11.38;;;;;;;21.11;63.02;97950.00;5092854;28;20081;-74
2022/07/26 06:33:05;;;;;;;14.25;11.10;;;;;;;20.91;65.00;97956.91;5092917;28;20472;-74
2022/07/26 06:35:30;;;;;;;13.32;10.65;;;;;;;20.73;64.91;97965.00;5092442;28;20032;-74
2022/07/26 06:37:58;;;;;;;11.90;10.20;;;;;;;20.63;65.66;97966.44;5092300;28;20028;-73
2022/07/26 06:40:24;;;;;;;12.13;10.75;;;;;;;20.54;65.80;97961.16;5090594;28;20028;-73
2022/07/26 06:42:50;;;;;;;10.93;9.82;;;;;;;20.49;67.28;97970.63;5091993;28;20077;-73
2022/07/26 06:45:15;;;;;;;13.98;11.32;;;;;;;20.39;66.43;97971.28;5073401;28;20501;-70
2022/07/26 06:47:40;;;;;;;13.50;10.20;;;;;;;20.35;66.46;97979.56;5091408;28;20400;-69
2022/07/26 06:50:07;;;;;;;12.70;9.95;;;;;;;20.31;67.83;97975.94;5073543;28;20020;-72
2022/07/26 06:52:33;;;;;;;14.73;10.90;;;;;;;20.27;69.61;97980.63;5091008;28;20071;-72
2022/07/26 06:54:59;;;;;;;13.60;11.10;;;;;;;20.18;68.86;97982.88;5091599;28;20111;-72
2022/07/26 06:57:25;;;;;;;13.57;11.27;;;;;;;20.09;68.98;97985.91;5091941;28;20069;-72
2022/07/26 06:59:51;;;;;;;13.55;11.10;;;;;;;20.02;71.31;97985.78;5090968;28;20473;-70
2022/07/26 07:02:16;;;;;;;13.35;11.35;;;;;;;19.93;69.67;97984.03;5090872;28;20036;-69
2022/07/26 07:04:41;;;;;;;16.30;12.25;;;;;;;19.88;70.71;97989.09;5091351;28;20116;-71
2022/07/26 07:07:07;;;;;;;13.63;10.63;;;;;;;19.82;71.91;97980.22;5087665;28;20024;-71
2022/07/26 07:09:34;;;;;;;15.70;11.90;;;;;;;19.75;72.25;97989.25;5089958;28;20427;-73
2022/07/26 07:12:01;;;;;;;16.25;11.68;;;;;;;19.69;73.21;97992.72;5090414;28;20043;-72
2022/07/26 07:14:27;;;;;;;12.25;10.25;;;;;;;19.61;73.81;97989.81;5090724;28;20020;-71
2022/07/26 07:16:52;;;;;;;14.15;10.88;;;;;;;19.57;73.90;97993.66;5089000;28;20054;-71
2022/07/26 07:19:18;;;;;;;16.35;11.60;;;;;;;19.57;74.71;98002.84;5088948;28;20026;-71
2022/07/26 07:21:43;;;;;;;12.20;10.70;;;;;;;19.55;75.75;98010.75;5070562;28;20445;-71
2022/07/26 07:24:09;;;;;;;14.13;10.70;;;;;;;19.51;75.77;98007.06;5091403;28;20107;-72
2022/07/26 07:26:34;;;;;;;15.10;13.05;;;;;;;19.47;74.74;98003.41;5090762;28;20028;-71
2022/07/26 07:28:59;;;;;;;12.57;10.27;;;;;;;19.47;75.73;98017.31;5091444;28;20190;-71
2022/07/26 07:31:25;;;;;;;14.18;10.95;;;;;;;19.42;76.77;98004.53;5089167;28;20015;-70
2022/07/26 07:33:51;;;;;;;15.80;11.50;;;;;;;19.38;76.85;98002.84;5091104;28;20035;-71
2022/07/26 07:36:16;;;;;;;13.57;11.00;;;;;;;19.36;76.87;97996.88;5090879;28;20035;-71
2022/07/26 07:38:43;;;;;;;12.05;9.73;;;;;;;19.32;77.57;97994.81;5091111;28;20024;-72
2022/07/26 07:41:09;;;;;;;12.13;9.32;;;;;;;19.30;78.63;97999.13;5091108;28;20042;-71
2022/07/26 07:43:34;;;;;;;11.40;9.63;;;;;;;19.25;78.47;97991.88;5091125;28;20032;-70
2022/07/26 07:46:00;;;;;;;12.15;9.48;;;;;;;19.21;78.45;97998.53;5091085;28;20421;-72
2022/07/26 07:48:25;;;;;;;11.32;9.35;;;;;;;19.12;78.44;97990.41;5091088;28;20085;-72
2022/07/26 07:50:51;;;;;;;11.85;9.85;;;;;;;19.03;77.69;97983.06;5090752;28;20032;-71
2022/07/26 07:53:16;;;;;;;10.20;8.85;;;;;;;18.99;79.28;98000.84;5090768;28;20503;-70
2022/07/26 07:55:42;;;;;;;13.00;9.88;;;;;;;18.90;79.46;97976.81;5090777;28;20404;-73
2022/07/26 07:58:07;;;;;;;10.13;8.80;;;;;;;18.80;80.34;97979.38;5089852;28;20060;-71
2022/07/26 08:00:33;;;;;;;10.95;9.55;;;;;;;18.72;79.48;97978.44;5089747;28;20032;-73
2022/07/26 08:02:58;;;;;;;10.80;9.52;;;;;;;18.66;80.40;97994.53;5090115;28;20103;-72
2022/07/26 08:05:23;;;;;;;9.25;8.32;;;;;;;18.61;80.65;97992.03;5090839;28;20372;-70
2022/07/26 08:07:49;;;;;;;11.10;8.43;;;;;;;18.59;79.58;97997.97;5090884;28;20024;-72
2022/07/26 08:10:15;;;;;;;10.75;8.40;;;;;;;18.60;79.35;97998.75;5090535;28;20032;-73
2022/07/26 08:12:41;;;;;;;10.30;8.35;;;;;;;18.62;80.19;97993.66;5090236;28;20074;-73
2022/07/26 08:15:07;;;;;;;10.77;8.20;;;;;;;18.59;80.35;97997.97;5090116;28;20492;-71
2022/07/26 08:17:33;;;;;;;9.77;7.70;;;;;;;18.62;80.29;98002.00;5090548;28;20079;-71
2022/07/26 08:19:58;;;;;;;8.38;6.93;;;;;;;18.67;82.03;98012.03;5090221;28;20028;-71
2022/07/26 08:22:24;;;;;;;10.68;8.27;;;;;;;18.67;80.92;98020.38;5090306;28;20043;-71
2022/07/26 08:24:49;;;;;;;8.75;7.40;;;;;;;18.67;80.42;98017.59;5071831;28;20488;-71
2022/07/26 08:27:14;;;;;;;8.32;7.47;;;;;;;18.75;79.86;98024.91;5090438;28;20108;-70
2022/07/26 08:29:40;;;;;;;9.00;7.78;;;;;;;18.85;79.42;98034.66;5090057;28;20436;-70
2022/07/26 08:32:05;;;;;;;10.63;7.85;;;;;;;18.93;79.09;98039.22;5090433;28;20020;-70
2022/07/26 08:34:31;;;;;;;10.65;7.85;;;;;;;19.01;79.31;98043.78;5090483;28;20062;-71
2022/07/26 08:36:57;;;;;;;10.93;8.85;;;;;;;19.09;79.07;98049.50;5089930;28;20078;-70
2022/07/26 08:39:22;;;;;;;9.20;7.85;;;;;;;19.15;78.84;98042.50;5090404;28;20032;-70
2022/07/26 08:41:48;;;;;;;8.98;7.18;;;;;;;19.27;78.99;98031.25;5090521;28;20028;-71
2022/07/26 08:44:13;;;;;;;8.90;7.97;;;;;;;19.39;78.47;98029.47;5090453;28;20031;-71
2022/07/26 08:46:41;;;;;;;9.18;8.02;;;;;;;19.52;78.57;98022.59;5072314;28;20020;-71
2022/07/26 08:49:09;;;;;;;10.00;8.63;;;;;;;19.62;78.38;98038.69;5094505;28;20035;-68
2022/07/26 08:51:39;;;;;;;11.57;8.27;;;;;;;19.70;78.04;98053.53;5096391;28;20050;-70
2022/07/26 08:54:05;;;;;;;8.75;7.53;;;;;;;19.71;78.07;98065.50;5096834;28;20094;-70
2022/07/26 08:56:31;;;;;;;8.27;6.97;;;;;;;;;;5096948;28;20073;-70
2022/07/26 08:58:57;;;;;;;9.77;8.73;;;;;;;19.84;77.74;98075.28;5097019;28;20361;-70
2022/07/26 09:01:22;;;;;;;9.77;7.30;;;;;;;19.98;78.79;98085.91;5096819;28;20081;-70
2022/07/26 09:03:48;;;;;;;9.23;8.23;;;;;;;20.04;77.95;98100.34;5096575;28;20024;-69
2022/07/26 09:06:18;;;;;;;7.88;6.93;;;;;;;20.11;78.85;98108.84;5097158;28;20074;-71
2022/07/26 09:08:46;;;;;;;9.10;7.93;;;;;;;20.14;77.72;98124.81;5090751;28;20028;-70
2022/07/26 09:11:29;;;;;;;8.25;7.00;;;;;;;20.25;78.36;98129.75;5095665;28;20052;-70
2022/07/26 09:14:00;;;;;;;7.57;6.82;;;;;;;20.25;77.37;98138.91;5096434;28;20111;-71
2022/07/26 09:16:27;;;;;;;7.32;6.45;;;;;;;20.29;77.60;98141.75;5096186;28;20444;-71
2022/07/26 09:18:53;;;;;;;9.85;7.15;;;;;;;20.32;77.04;98147.41;5092200;28;20058;-70
2022/07/26 09:21:35;;;;;;;8.50;6.43;;;;;;;20.34;77.63;98155.38;5093144;28;20056;-70
2022/07/26 09:24:01;;;;;;;9.90;7.75;;;;;;;20.31;77.77;98161.69;5092519;28;20053;-70
2022/07/26 09:26:27;;;;;;;7.50;6.65;;;;;;;20.33;77.04;98168.50;5095259;28;20032;-71
2022/07/26 09:29:10;;;;;;;8.73;6.78;;;;;;;20.35;76.93;98157.00;5095059;28;20440;-71
2022/07/26 09:31:37;;;;;;;8.00;5.57;;;;;;;20.42;77.17;98165.47;5092380;28;20024;-71
2022/07/26 09:34:04;;;;;;;5.82;5.18;;;;;;;20.44;77.08;98168.72;5095718;28;20028;-72
2022/07/26 09:36:30;;;;;;;7.60;6.40;;;;;;;20.42;76.96;98170.22;5095589;28;20434;-71
2022/07/26 09:39:00;;;;;;;6.32;5.47;;;;;;;20.36;76.43;98166.97;5076491;28;20027;-70
2022/07/26 09:41:32;;;;;;;6.78;5.60;;;;;;;20.42;76.55;98171.06;5095232;28;20024;-71
2022/07/26 09:44:00;;;;;;;6.78;5.72;;;;;;;20.40;76.52;98176.19;5092420;28;20031;-71
2022/07/26 09:46:28;;;;;;;6.32;4.95;;;;;;;20.35;76.49;98171.75;5091345;28;20043;-71
2022/07/26 09:48:55;;;;;;;6.30;4.63;;;;;;;20.30;77.02;98180.38;5091692;28;20032;-70
2022/07/26 09:51:36;;;;;;;5.55;4.63;;;;;;;20.23;76.01;98175.47;5092835;28;20088;-73
2022/07/26 09:54:02;;;;;;;5.78;4.57;;;;;;;20.17;75.99;98181.72;5093394;28;20043;-71
2022/07/26 09:57:00;;;;;;;8.18;4.78;;;;;;;20.07;76.13;98185.91;5094563;28;20032;-72
2022/07/26 09:59:27;;;;;;;5.22;4.40;;;;;;;20.05;75.89;98180.69;5037734;28;20554;-71
2022/07/26 10:01:56;;;;;;;6.00;4.90;;;;;;;20.05;76.17;98182.69;5070885;28;20032;-72
2022/07/26 10:04:22;;;;;;;5.38;4.88;;;;;;;20.02;75.99;98181.41;5091010;28;20039;-71
2022/07/26 10:06:47;;;;;;;5.68;4.75;;;;;;;20.05;75.75;98177.09;5090560;28;20107;-70
2022/07/26 10:09:14;;;;;;;6.32;4.22;;;;;;;20.07;75.47;98183.13;5089530;28;20099;-69
2022/07/26 10:11:39;;;;;;;6.95;5.00;;;;;;;20.08;75.63;98181.94;5089951;28;20032;-71
2022/07/26 10:14:29;;;;;;;6.80;4.38;;;;;;;20.09;75.30;98183.56;5087139;28;20023;-69
2022/07/26 10:16:55;;;;;;;5.75;4.25;;;;;;;20.07;74.84;98178.34;5088966;28;20498;-72
2022/07/26 10:19:40;;;;;;;5.65;4.10;;;;;;;19.97;74.98;98194.81;5072877;28;20043;-71
2022/07/26 10:22:29;;;;;;;5.30;4.30;;;;;;;19.85;75.10;98193.75;5087996;28;20103;-69
2022/07/26 10:24:56;;;;;;;;;;;;;;;19.68;75.31;98199.75;5089368;28;20141;-71
2022/07/26 10:27:41;;;;;;;6.53;4.63;;;;;;;19.52;75.74;98208.94;5088742;28;19916;-70
2022/07/26 10:30:15;;;;;;;6.63;4.38;;;;;;;19.43;75.29;98206.38;5087948;28;20039;-71
2022/07/26 10:32:43;;;;;;;5.95;4.40;;;;;;;19.35;75.28;98212.91;5087647;28;20090;-74
2022/07/26 10:35:31;;;;;;;5.50;4.68;;;;;;;19.28;75.55;98213.56;5089441;28;20024;-69
2022/07/26 10:38:01;;;;;;;6.07;4.40;;;;;;;19.22;75.16;98212.22;5089935;28;20028;-70
2022/07/26 10:40:30;;;;;;;5.72;4.95;;;;;;;19.17;75.37;98216.06;5089329;28;20028;-70
2022/07/26 10:43:10;;;;;;;8.32;4.60;;;;;;;19.20;75.33;98211.78;5087900;28;20024;-69
2022/07/26 10:45:36;;;;;;;6.03;5.13;;;;;;;19.23;75.31;98216.63;5090063;28;20056;-70
2022/07/26 10:48:11;;;;;;;8.10;5.93;;;;;;;19.28;75.59;98202.44;5090794;28;20028;-70
2022/07/26 10:50:37;;;;;;;9.63;5.57;;;;;;;19.30;75.66;98215.97;5087241;28;20032;-71
2022/07/26 10:53:03;;;;;;;5.70;4.75;;;;;;;19.39;75.50;98215.78;5090424;28;20032;-70
2022/07/26 10:55:29;;;;;;;7.07;5.55;;;;;;;19.46;75.26;98222.34;5086743;28;20047;-70
2022/07/26 10:57:54;;;;;;;8.75;6.05;;;;;;;19.51;75.44;98212.88;5086930;28;20032;-70
2022/07/26 11:00:23;;;;;;;8.30;5.35;;;;;;;19.55;75.53;98210.22;5067999;28;20550;-71
2022/07/26 11:02:53;;;;;;;7.68;5.63;;;;;;;19.54;74.92;98214.94;5067816;28;20504;-70
2022/07/26 11:05:21;;;;;;;7.15;5.07;;;;;;;19.60;74.91;98212.69;5085507;28;20024;-71
2022/07/26 11:07:55;;;;;;;7.45;6.10;;;;;;;19.68;74.78;98208.91;5091280;28;20061;-69
2022/07/26 11:10:50;;;;;;;6.88;5.32;;;;;;;19.83;74.97;98214.78;5087777;28;20070;-69
2022/07/26 11:13:21;;;;;;;7.57;6.50;;;;;;;19.96;74.68;98212.69;5067404;28;20400;-70
2022/07/26 11:15:49;;;;;;;6.50;5.78;;;;;;;20.03;74.38;98210.84;5088125;28;20157;-69
2022/07/26 11:18:21;;;;;;;7.22;6.20;;;;;;;20.12;74.44;98216.22;5087033;28;20040;-69
2022/07/26 11:20:50;;;;;;;7.55;5.85;;;;;;;20.16;73.86;98205.97;5089220;28;20086;-68
2022/07/26 11:23:35;;;;;;;8.93;5.82;;;;;;;20.23;74.02;98205.31;5086082;28;20031;-68
2022/07/26 11:26:22;;;;;;;7.72;5.28;;;;;;;20.28;73.62;98205.00;5086969;28;20089;-69
2022/07/26 11:28:59;;;;;;;6.43;5.07;;;;;;;20.32;73.76;98205.88;5089832;28;20513;-68
2022/07/26 11:31:27;;;;;;;7.93;5.22;;;;;;;20.33;73.18;98206.69;5084378;28;20032;-67